sensor_id;sensor_type;location;lat;lon;timestamp;pressure;altitude;pressure_sealevel;temperature;humidity
32761;BME280;19126;47.472;7.850;2023-06-10T00:01:28;96158.91;;;16.36;100.00
32761;BME280;19126;47.472;7.850;2023-06-10T00:03:56;96162.44;;;16.30;100.00
32761;BME280;19126;47.472;7.850;2023-06-10T00:06:23;96155.22;;;16.19;100.00
32761;BME280;19126;47.472;7.850;2023-06-10T00:08:50;96164.59;;;16.21;100.00
32761;BME280;19126;47.472;7.850;2023-06-10T00:11:20;96170.97;;;16.14;100.00
32761;BME280;19126;47.472;7.850;2023-06-10T00:13:47;96163.91;;;16.07;100.00
32761;BME280;19126;47.472;7.850;2023-06-10T00:16:14;96165.63;;;16.02;100.00
32761;BME280;19126;47.472;7.850;2023-06-10T00:18:43;96176.06;;;15.96;100.00
32761;BME280;19126;47.472;7.850;2023-06-10T00:21:10;96171.19;;;15.93;100.00
32761;BME280;19126;47.472;7.850;2023-06-10T00:23:39;96160.44;;;15.88;100.00
32761;BME280;19126;47.472;7.850;2023-06-10T00:26:06;96167.75;;;15.86;100.00
32761;BME280;19126;47.472;7.850;2023-06-10T00:28:35;96171.06;;;15.81;100.00
32761;BME280;19126;47.472;7.850;2023-06-10T00:31:02;96171.50;;;15.78;100.00
32761;BME280;19126;47.472;7.850;2023-06-10T00:33:30;96165.91;;;15.68;100.00
32761;BME280;19126;47.472;7.850;2023-06-10T00:35:58;96168.75;;;15.66;100.00
32761;BME280;19126;47.472;7.850;2023-06-10T00:38:25;96166.97;;;15.60;100.00
32761;BME280;19126;47.472;7.850;2023-06-10T00:40:52;96164.84;;;15.50;100.00
32761;BME280;19126;47.472;7.850;2023-06-10T00:43:19;96163.84;;;15.45;100.00
32761;BME280;19126;47.472;7.850;2023-06-10T00:45:47;96165.69;;;15.44;100.00
32761;BME280;19126;47.472;7.850;2023-06-10T00:48:14;96166.72;;;15.43;100.00
32761;BME280;19126;47.472;7.850;2023-06-10T00:50:41;96164.19;;;15.30;100.00
32761;BME280;19126;47.472;7.850;2023-06-10T00:53:09;96160.88;;;15.34;100.00
32761;BME280;19126;47.472;7.850;2023-06-10T00:55:36;96165.16;;;15.35;100.00
32761;BME280;19126;47.472;7.850;2023-06-10T00:58:03;96162.13;;;15.32;100.00
32761;BME280;19126;47.472;7.850;2023-06-10T01:00:31;96162.16;;;15.25;100.00
32761;BME280;19126;47.472;7.850;2023-06-10T01:02:59;96164.06;;;15.18;100.00
32761;BME280;19126;47.472;7.850;2023-06-10T01:05:26;96162.50;;;15.10;100.00
32761;BME280;19126;47.472;7.850;2023-06-10T01:07:56;96166.97;;;15.09;100.00
32761;BME280;19126;47.472;7.850;2023-06-10T01:10:29;96166.38;;;15.07;100.00
32761;BME280;19126;47.472;7.850;2023-06-10T01:13:02;96173.94;;;15.04;100.00
32761;BME280;19126;47.472;7.850;2023-06-10T01:15:30;96167.03;;;15.03;100.00
32761;BME280;19126;47.472;7.850;2023-06-10T01:17:59;96172.75;;;15.00;100.00
32761;BME280;19126;47.472;7.850;2023-06-10T01:20:28;96174.03;;;14.90;100.00
32761;BME280;19126;47.472;7.850;2023-06-10T01:22:57;96165.69;;;14.87;100.00
32761;BME280;19126;47.472;7.850;2023-06-10T01:25:25;96169.16;;;14.87;100.00
32761;BME280;19126;47.472;7.850;2023-06-10T01:27:57;96170.38;;;14.85;100.00
32761;BME280;19126;47.472;7.850;2023-06-10T01:30:27;96173.25;;;14.83;100.00
32761;BME280;19126;47.472;7.850;2023-06-10T01:32:56;96173.06;;;14.78;100.00
32761;BME280;19126;47.472;7.850;2023-06-10T01:35:25;96174.53;;;14.74;100.00
32761;BME280;19126;47.472;7.850;2023-06-10T01:37:54;96173.09;;;14.71;100.00
32761;BME280;19126;47.472;7.850;2023-06-10T01:40:25;96183.69;;;14.64;100.00
32761;BME280;19126;47.472;7.850;2023-06-10T01:42:52;96168.66;;;14.58;100.00
32761;BME280;19126;47.472;7.850;2023-06-10T01:45:19;96173.13;;;14.58;100.00
32761;BME280;19126;47.472;7.850;2023-06-10T01:47:46;96181.88;;;14.58;100.00
32761;BME280;19126;47.472;7.850;2023-06-10T01:50:13;96184.72;;;14.57;100.00
32761;BME280;19126;47.472;7.850;2023-06-10T01:52:42;96185.13;;;14.54;100.00
32761;BME280;19126;47.472;7.850;2023-06-10T01:55:09;96183.72;;;14.51;100.00
32761;BME280;19126;47.472;7.850;2023-06-10T01:57:37;96179.88;;;14.47;100.00
32761;BME280;19126;47.472;7.850;2023-06-10T02:00:06;96183.56;;;14.39;100.00
32761;BME280;19126;47.472;7.850;2023-06-10T02:02:34;96180.16;;;14.32;100.00
32761;BME280;19126;47.472;7.850;2023-06-10T02:05:01;96180.56;;;14.29;100.00
32761;BME280;19126;47.472;7.850;2023-06-10T02:07:29;96186.88;;;14.28;100.00
32761;BME280;19126;47.472;7.850;2023-06-10T02:09:56;96194.19;;;14.19;100.00
32761;BME280;19126;47.472;7.850;2023-06-10T02:12:23;96194.81;;;14.14;100.00
32761;BME280;19126;47.472;7.850;2023-06-10T02:14:52;96189.13;;;14.11;100.00
32761;BME280;19126;47.472;7.850;2023-06-10T02:17:18;96194.84;;;14.07;100.00
32761;BME280;19126;47.472;7.850;2023-06-10T02:19:46;96193.63;;;14.03;100.00
32761;BME280;19126;47.472;7.850;2023-06-10T02:22:19;96200.16;;;14.01;100.00
32761;BME280;19126;47.472;7.850;2023-06-10T02:24:46;96198.31;;;13.95;100.00
32761;BME280;19126;47.472;7.850;2023-06-10T02:27:14;96200.13;;;13.94;100.00
32761;BME280;19126;47.472;7.850;2023-06-10T02:29:41;96202.19;;;13.99;100.00
32761;BME280;19126;47.472;7.850;2023-06-10T02:32:10;96206.44;;;13.93;100.00
32761;BME280;19126;47.472;7.850;2023-06-10T02:34:37;96207.69;;;13.90;100.00
32761;BME280;19126;47.472;7.850;2023-06-10T02:37:04;96202.19;;;13.85;100.00
32761;BME280;19126;47.472;7.850;2023-06-10T02:39:31;96203.41;;;13.83;100.00
32761;BME280;19126;47.472;7.850;2023-06-10T02:41:58;96207.28;;;13.80;100.00
32761;BME280;19126;47.472;7.850;2023-06-10T02:44:25;96209.94;;;13.80;100.00
32761;BME280;19126;47.472;7.850;2023-06-10T02:46:53;96208.72;;;13.76;100.00
32761;BME280;19126;47.472;7.850;2023-06-10T02:49:21;96206.47;;;13.73;100.00
32761;BME280;19126;47.472;7.850;2023-06-10T02:51:49;96205.03;;;13.70;100.00
32761;BME280;19126;47.472;7.850;2023-06-10T02:54:18;96215.41;;;13.72;100.00
32761;BME280;19126;47.472;7.850;2023-06-10T02:56:46;96214.19;;;13.68;100.00
32761;BME280;19126;47.472;7.850;2023-06-10T02:59:13;96213.16;;;13.62;100.00
32761;BME280;19126;47.472;7.850;2023-06-10T03:01:40;96210.94;;;13.59;100.00
32761;BME280;19126;47.472;7.850;2023-06-10T03:04:07;96218.47;;;13.55;100.00
32761;BME280;19126;47.472;7.850;2023-06-10T03:06:37;96222.72;;;13.56;100.00
32761;BME280;19126;47.472;7.850;2023-06-10T03:09:04;96218.44;;;13.48;100.00
32761;BME280;19126;47.472;7.850;2023-06-10T03:11:32;96218.47;;;13.42;100.00
32761;BME280;19126;47.472;7.850;2023-06-10T03:13:59;96229.81;;;13.42;100.00
32761;BME280;19126;47.472;7.850;2023-06-10T03:16:26;96227.53;;;13.39;100.00
32761;BME280;19126;47.472;7.850;2023-06-10T03:18:55;96225.91;;;13.38;100.00
32761;BME280;19126;47.472;7.850;2023-06-10T03:21:22;96223.50;;;13.37;98.77
32761;BME280;19126;47.472;7.850;2023-06-10T03:23:51;96223.50;;;13.37;98.05
32761;BME280;19126;47.472;7.850;2023-06-10T03:26:18;96234.84;;;13.37;97.82
32761;BME280;19126;47.472;7.850;2023-06-10T03:28:47;96235.06;;;13.36;97.31
32761;BME280;19126;47.472;7.850;2023-06-10T03:31:14;96232.22;;;13.37;97.33
32761;BME280;19126;47.472;7.850;2023-06-10T03:33:42;96237.09;;;13.33;97.63
32761;BME280;19126;47.472;7.850;2023-06-10T03:36:09;96237.50;;;13.30;96.48
32761;BME280;19126;47.472;7.850;2023-06-10T03:38:36;96238.28;;;13.31;95.68
32761;BME280;19126;47.472;7.850;2023-06-10T03:41:04;96240.31;;;13.29;95.08
32761;BME280;19126;47.472;7.850;2023-06-10T03:43:31;96242.38;;;13.33;94.47
32761;BME280;19126;47.472;7.850;2023-06-10T03:45:59;96244.38;;;13.38;93.44
32761;BME280;19126;47.472;7.850;2023-06-10T03:48:26;96232.03;;;13.39;92.06
32761;BME280;19126;47.472;7.850;2023-06-10T03:50:53;96235.91;;;13.43;90.95
32761;BME280;19126;47.472;7.850;2023-06-10T03:53:20;96236.53;;;13.45;89.64
32761;BME280;19126;47.472;7.850;2023-06-10T03:55:48;96237.53;;;13.44;88.92
32761;BME280;19126;47.472;7.850;2023-06-10T03:58:16;96234.69;;;13.45;89.20
32761;BME280;19126;47.472;7.850;2023-06-10T04:00:43;96239.16;;;13.52;89.35
32761;BME280;19126;47.472;7.850;2023-06-10T04:03:11;96237.53;;;13.51;90.52
32761;BME280;19126;47.472;7.850;2023-06-10T04:05:40;96241.00;;;13.51;90.38
32761;BME280;19126;47.472;7.850;2023-06-10T04:08:08;96245.44;;;13.51;90.91
32761;BME280;19126;47.472;7.850;2023-06-10T04:10:35;96243.03;;;13.49;90.65
32761;BME280;19126;47.472;7.850;2023-06-10T04:13:02;96244.66;;;13.50;90.00
32761;BME280;19126;47.472;7.850;2023-06-10T04:15:31;96248.09;;;13.51;89.96
32761;BME280;19126;47.472;7.850;2023-06-10T04:17:59;96246.88;;;13.53;90.20
32761;BME280;19126;47.472;7.850;2023-06-10T04:20:26;96245.88;;;13.54;89.53
32761;BME280;19126;47.472;7.850;2023-06-10T04:22:53;96252.16;;;13.53;89.55
32761;BME280;19126;47.472;7.850;2023-06-10T04:25:21;96248.50;;;13.54;89.26
32761;BME280;19126;47.472;7.850;2023-06-10T04:27:48;96256.03;;;13.57;88.79
32761;BME280;19126;47.472;7.850;2023-06-10T04:30:16;96253.78;;;13.61;88.52
32761;BME280;19126;47.472;7.850;2023-06-10T04:32:44;96251.97;;;13.61;88.27
32761;BME280;19126;47.472;7.850;2023-06-10T04:35:12;96257.03;;;13.63;88.22
32761;BME280;19126;47.472;7.850;2023-06-10T04:37:40;96257.63;;;13.65;87.32
32761;BME280;19126;47.472;7.850;2023-06-10T04:40:08;96258.06;;;13.69;86.33
32761;BME280;19126;47.472;7.850;2023-06-10T04:42:35;96261.91;;;13.73;86.65
32761;BME280;19126;47.472;7.850;2023-06-10T04:45:03;96256.84;;;13.78;86.09
32761;BME280;19126;47.472;7.850;2023-06-10T04:47:30;96253.78;;;13.81;86.07
32761;BME280;19126;47.472;7.850;2023-06-10T04:50:00;96257.66;;;13.85;86.39
32761;BME280;19126;47.472;7.850;2023-06-10T04:52:27;96259.66;;;13.90;87.05
32761;BME280;19126;47.472;7.850;2023-06-10T04:54:54;96261.88;;;13.93;86.30
32761;BME280;19126;47.472;7.850;2023-06-10T04:57:22;96264.13;;;14.03;87.29
32761;BME280;19126;47.472;7.850;2023-06-10T04:59:49;96268.41;;;14.04;89.09
32761;BME280;19126;47.472;7.850;2023-06-10T05:02:16;96268.19;;;14.05;88.97
32761;BME280;19126;47.472;7.850;2023-06-10T05:04:43;96271.41;;;14.07;89.35
32761;BME280;19126;47.472;7.850;2023-06-10T05:07:12;96270.81;;;14.12;88.82
32761;BME280;19126;47.472;7.850;2023-06-10T05:09:39;96264.72;;;14.18;88.30
32761;BME280;19126;47.472;7.850;2023-06-10T05:12:06;96261.81;;;14.33;88.36
32761;BME280;19126;47.472;7.850;2023-06-10T05:14:34;96266.66;;;14.63;90.66
32761;BME280;19126;47.472;7.850;2023-06-10T05:17:01;96276.91;;;14.99;93.89
32761;BME280;19126;47.472;7.850;2023-06-10T05:19:31;96283.00;;;15.38;97.93
32761;BME280;19126;47.472;7.850;2023-06-10T05:21:58;96281.75;;;15.73;100.00
32761;BME280;19126;47.472;7.850;2023-06-10T05:24:26;96283.97;;;16.08;100.00
32761;BME280;19126;47.472;7.850;2023-06-10T05:26:54;96283.56;;;16.30;100.00
32761;BME280;19126;47.472;7.850;2023-06-10T05:29:21;96284.09;;;16.57;100.00
32761;BME280;19126;47.472;7.850;2023-06-10T05:31:48;96287.84;;;16.87;100.00
32761;BME280;19126;47.472;7.850;2023-06-10T05:34:15;96287.41;;;17.08;100.00
32761;BME280;19126;47.472;7.850;2023-06-10T05:36:42;96284.72;;;17.27;100.00
32761;BME280;19126;47.472;7.850;2023-06-10T05:39:10;96289.75;;;17.47;100.00
32761;BME280;19126;47.472;7.850;2023-06-10T05:41:38;96293.06;;;17.73;100.00
32761;BME280;19126;47.472;7.850;2023-06-10T05:44:05;96297.13;;;17.87;100.00
32761;BME280;19126;47.472;7.850;2023-06-10T05:46:32;96290.56;;;18.14;100.00
32761;BME280;19126;47.472;7.850;2023-06-10T05:48:59;96288.63;;;18.33;100.00
32761;BME280;19126;47.472;7.850;2023-06-10T05:51:26;96287.81;;;18.33;98.46
32761;BME280;19126;47.472;7.850;2023-06-10T05:53:54;96288.59;;;18.57;100.00
32761;BME280;19126;47.472;7.850;2023-06-10T05:56:21;96293.50;;;18.89;100.00
32761;BME280;19126;47.472;7.850;2023-06-10T05:58:49;96287.47;;;19.06;97.82
32761;BME280;19126;47.472;7.850;2023-06-10T06:01:16;96282.88;;;19.30;97.59
32761;BME280;19126;47.472;7.850;2023-06-10T06:03:43;96291.16;;;19.62;100.00
32761;BME280;19126;47.472;7.850;2023-06-10T06:06:10;96290.94;;;19.81;95.11
32761;BME280;19126;47.472;7.850;2023-06-10T06:08:37;96290.66;;;20.12;93.42
32761;BME280;19126;47.472;7.850;2023-06-10T06:11:04;96292.28;;;20.30;92.78
32761;BME280;19126;47.472;7.850;2023-06-10T06:13:31;96286.91;;;20.47;91.90
32761;BME280;19126;47.472;7.850;2023-06-10T06:16:00;96288.28;;;20.72;88.99
32761;BME280;19126;47.472;7.850;2023-06-10T06:18:27;96285.53;;;20.84;88.20
32761;BME280;19126;47.472;7.850;2023-06-10T06:20:54;96281.78;;;21.07;86.47
32761;BME280;19126;47.472;7.850;2023-06-10T06:23:21;96283.16;;;21.32;88.03
32761;BME280;19126;47.472;7.850;2023-06-10T06:25:48;96285.22;;;21.52;85.21
32761;BME280;19126;47.472;7.850;2023-06-10T06:28:15;96283.47;;;21.63;83.69
32761;BME280;19126;47.472;7.850;2023-06-10T06:30:44;96283.19;;;21.92;85.31
32761;BME280;19126;47.472;7.850;2023-06-10T06:33:12;96280.19;;;22.21;84.91
32761;BME280;19126;47.472;7.850;2023-06-10T06:35:39;96284.28;;;22.39;81.57
32761;BME280;19126;47.472;7.850;2023-06-10T06:38:06;96284.72;;;22.58;82.70
32761;BME280;19126;47.472;7.850;2023-06-10T06:40:33;96284.84;;;22.84;79.85
32761;BME280;19126;47.472;7.850;2023-06-10T06:43:01;96285.69;;;22.90;77.06
32761;BME280;19126;47.472;7.850;2023-06-10T06:45:28;96286.50;;;23.01;77.38
32761;BME280;19126;47.472;7.850;2023-06-10T06:47:55;96282.78;;;23.12;77.93
32761;BME280;19126;47.472;7.850;2023-06-10T06:50:23;96278.31;;;23.28;77.07
32761;BME280;19126;47.472;7.850;2023-06-10T06:52:50;96282.13;;;23.63;77.11
32761;BME280;19126;47.472;7.850;2023-06-10T06:55:17;96281.31;;;23.63;73.80
32761;BME280;19126;47.472;7.850;2023-06-10T06:57:44;96285.59;;;23.64;75.02
32761;BME280;19126;47.472;7.850;2023-06-10T07:00:12;96288.28;;;23.64;73.28
32761;BME280;19126;47.472;7.850;2023-06-10T07:02:39;96287.22;;;23.75;75.11
32761;BME280;19126;47.472;7.850;2023-06-10T07:05:07;96281.91;;;23.91;73.74
32761;BME280;19126;47.472;7.850;2023-06-10T07:07:35;96277.84;;;23.98;72.13
32761;BME280;19126;47.472;7.850;2023-06-10T07:10:03;96283.53;;;24.12;71.66
32761;BME280;19126;47.472;7.850;2023-06-10T07:12:30;96282.97;;;24.16;70.49
32761;BME280;19126;47.472;7.850;2023-06-10T07:14:57;96292.63;;;24.32;71.06
32761;BME280;19126;47.472;7.850;2023-06-10T07:17:24;96288.31;;;24.36;71.50
32761;BME280;19126;47.472;7.850;2023-06-10T07:19:52;96292.06;;;24.46;70.18
32761;BME280;19126;47.472;7.850;2023-06-10T07:22:23;96289.94;;;24.37;70.89
32761;BME280;19126;47.472;7.850;2023-06-10T07:24:51;96296.56;;;24.61;71.40
32761;BME280;19126;47.472;7.850;2023-06-10T07:27:20;96290.09;;;24.77;67.88
32761;BME280;19126;47.472;7.850;2023-06-10T07:29:47;96293.25;;;25.00;69.06
32761;BME280;19126;47.472;7.850;2023-06-10T07:32:14;96295.53;;;25.27;67.99
32761;BME280;19126;47.472;7.850;2023-06-10T07:34:41;96293.88;;;25.37;64.90
32761;BME280;19126;47.472;7.850;2023-06-10T07:37:08;96292.34;;;25.25;64.89
32761;BME280;19126;47.472;7.850;2023-06-10T07:39:35;96291.66;;;25.54;64.67
32761;BME280;19126;47.472;7.850;2023-06-10T07:42:05;96288.81;;;25.75;61.73
32761;BME280;19126;47.472;7.850;2023-06-10T07:44:32;96284.63;;;25.58;60.83
32761;BME280;19126;47.472;7.850;2023-06-10T07:46:59;96295.06;;;25.70;66.50
32761;BME280;19126;47.472;7.850;2023-06-10T07:49:26;96286.91;;;25.81;63.76
32761;BME280;19126;47.472;7.850;2023-06-10T07:51:54;96289.34;;;26.12;63.18
32761;BME280;19126;47.472;7.850;2023-06-10T07:54:21;96289.91;;;26.09;59.32
32761;BME280;19126;47.472;7.850;2023-06-10T07:56:48;96286.50;;;26.32;59.72
32761;BME280;19126;47.472;7.850;2023-06-10T07:59:19;96285.81;;;26.46;57.87
32761;BME280;19126;47.472;7.850;2023-06-10T08:01:46;96294.28;;;26.34;57.49
32761;BME280;19126;47.472;7.850;2023-06-10T08:04:13;96297.25;;;26.62;59.58
32761;BME280;19126;47.472;7.850;2023-06-10T08:06:40;96295.09;;;26.88;57.02
32761;BME280;19126;47.472;7.850;2023-06-10T08:09:07;96302.69;;;26.81;57.80
32761;BME280;19126;47.472;7.850;2023-06-10T08:11:34;96296.50;;;26.56;58.01
32761;BME280;19126;47.472;7.850;2023-06-10T08:14:01;96296.94;;;26.63;55.70
32761;BME280;19126;47.472;7.850;2023-06-10T08:16:29;96294.78;;;26.66;53.52
32761;BME280;19126;47.472;7.850;2023-06-10T08:18:56;96297.78;;;26.88;55.29
32761;BME280;19126;47.472;7.850;2023-06-10T08:21:23;96297.88;;;26.78;52.32
32761;BME280;19126;47.472;7.850;2023-06-10T08:23:52;96296.13;;;26.92;50.70
32761;BME280;19126;47.472;7.850;2023-06-10T08:26:19;96296.81;;;27.03;52.05
32761;BME280;19126;47.472;7.850;2023-06-10T08:28:47;96294.88;;;27.28;52.31
32761;BME280;19126;47.472;7.850;2023-06-10T08:31:14;96292.38;;;27.32;51.43
32761;BME280;19126;47.472;7.850;2023-06-10T08:33:42;96296.91;;;27.37;51.51
32761;BME280;19126;47.472;7.850;2023-06-10T08:36:09;96289.13;;;27.54;52.46
32761;BME280;19126;47.472;7.850;2023-06-10T08:38:37;96288.31;;;27.73;53.60
32761;BME280;19126;47.472;7.850;2023-06-10T08:41:05;96288.31;;;27.73;51.50
32761;BME280;19126;47.472;7.850;2023-06-10T08:43:35;96285.66;;;27.48;50.56
32761;BME280;19126;47.472;7.850;2023-06-10T08:46:04;96285.88;;;27.90;53.42
32761;BME280;19126;47.472;7.850;2023-06-10T08:48:31;96292.63;;;28.40;53.34
32761;BME280;19126;47.472;7.850;2023-06-10T08:51:03;96292.69;;;28.96;55.24
32761;BME280;19126;47.472;7.850;2023-06-10T08:53:30;96289.16;;;29.09;47.21
32761;BME280;19126;47.472;7.850;2023-06-10T08:56:00;96289.72;;;29.48;47.21
32761;BME280;19126;47.472;7.850;2023-06-10T08:58:29;96293.88;;;29.91;50.49
32761;BME280;19126;47.472;7.850;2023-06-10T09:00:58;96286.38;;;30.42;47.43
32761;BME280;19126;47.472;7.850;2023-06-10T09:03:26;96276.78;;;30.36;45.31
32761;BME280;19126;47.472;7.850;2023-06-10T09:05:53;96270.31;;;30.15;44.98
32761;BME280;19126;47.472;7.850;2023-06-10T09:08:22;96277.31;;;30.16;47.20
32761;BME280;19126;47.472;7.850;2023-06-10T09:10:49;96272.50;;;30.35;46.13
32761;BME280;19126;47.472;7.850;2023-06-10T09:13:16;96280.03;;;30.16;44.25
32761;BME280;19126;47.472;7.850;2023-06-10T09:15:44;96277.03;;;29.94;44.66
32761;BME280;19126;47.472;7.850;2023-06-10T09:18:11;96266.09;;;30.00;46.35
32761;BME280;19126;47.472;7.850;2023-06-10T09:20:39;96271.28;;;29.73;44.17
32761;BME280;19126;47.472;7.850;2023-06-10T09:23:06;96273.72;;;29.75;45.94
32761;BME280;19126;47.472;7.850;2023-06-10T09:25:38;96264.16;;;29.77;45.40
32761;BME280;19126;47.472;7.850;2023-06-10T09:28:12;96263.88;;;30.02;45.74
32761;BME280;19126;47.472;7.850;2023-06-10T09:30:39;96270.38;;;29.78;45.13
32761;BME280;19126;47.472;7.850;2023-06-10T09:33:10;96268.91;;;29.94;46.04
32761;BME280;19126;47.472;7.850;2023-06-10T09:35:45;96265.22;;;29.90;44.05
32761;BME280;19126;47.472;7.850;2023-06-10T09:38:13;96267.00;;;29.72;45.05
32761;BME280;19126;47.472;7.850;2023-06-10T09:40:49;96268.66;;;29.59;46.70
32761;BME280;19126;47.472;7.850;2023-06-10T09:43:17;96261.44;;;29.77;45.40
32761;BME280;19126;47.472;7.850;2023-06-10T09:45:47;96270.53;;;29.59;46.04
32761;BME280;19126;47.472;7.850;2023-06-10T09:48:14;96269.56;;;29.77;46.33
32761;BME280;19126;47.472;7.850;2023-06-10T09:50:42;96262.13;;;29.83;45.20
32761;BME280;19126;47.472;7.850;2023-06-10T09:53:10;96257.97;;;30.31;46.15
32761;BME280;19126;47.472;7.850;2023-06-10T09:55:38;96256.72;;;30.60;46.25
32761;BME280;19126;47.472;7.850;2023-06-10T09:58:06;96259.56;;;30.64;43.93
32761;BME280;19126;47.472;7.850;2023-06-10T10:00:34;96249.13;;;30.48;44.38
32761;BME280;19126;47.472;7.850;2023-06-10T10:03:01;96254.19;;;30.09;44.61
32761;BME280;19126;47.472;7.850;2023-06-10T10:05:29;96254.38;;;29.90;44.65
32761;BME280;19126;47.472;7.850;2023-06-10T10:07:56;96261.44;;;30.23;46.47
32761;BME280;19126;47.472;7.850;2023-06-10T10:10:23;96250.25;;;29.93;45.21
32761;BME280;19126;47.472;7.850;2023-06-10T10:12:53;96248.03;;;30.18;45.94
32761;BME280;19126;47.472;7.850;2023-06-10T10:15:23;96257.66;;;30.01;44.49
32761;BME280;19126;47.472;7.850;2023-06-10T10:17:53;96251.69;;;29.67;45.63
32761;BME280;19126;47.472;7.850;2023-06-10T10:20:26;96251.22;;;29.51;44.86
32761;BME280;19126;47.472;7.850;2023-06-10T10:22:56;96246.63;;;29.52;44.54
32761;BME280;19126;47.472;7.850;2023-06-10T10:25:25;96243.38;;;29.27;45.93
32761;BME280;19126;47.472;7.850;2023-06-10T10:27:56;96245.47;;;29.30;44.67
32761;BME280;19126;47.472;7.850;2023-06-10T10:30:25;96231.56;;;29.60;45.72
32761;BME280;19126;47.472;7.850;2023-06-10T10:32:57;96244.63;;;29.07;43.30
32761;BME280;19126;47.472;7.850;2023-06-10T10:35:25;96246.31;;;29.17;44.06
32761;BME280;19126;47.472;7.850;2023-06-10T10:37:53;96242.25;;;29.65;44.62
32761;BME280;19126;47.472;7.850;2023-06-10T10:40:21;96243.63;;;29.99;42.64
32761;BME280;19126;47.472;7.850;2023-06-10T10:42:49;96234.97;;;29.97;42.27
32761;BME280;19126;47.472;7.850;2023-06-10T10:45:16;96235.97;;;30.01;41.43
32761;BME280;19126;47.472;7.850;2023-06-10T10:47:46;96239.00;;;29.77;41.55
32761;BME280;19126;47.472;7.850;2023-06-10T10:50:14;96238.50;;;29.97;43.33
32761;BME280;19126;47.472;7.850;2023-06-10T10:52:53;96238.84;;;30.59;41.89
32761;BME280;19126;47.472;7.850;2023-06-10T10:55:21;96235.13;;;31.13;41.14
32761;BME280;19126;47.472;7.850;2023-06-10T10:57:56;96233.06;;;31.19;39.85
32761;BME280;19126;47.472;7.850;2023-06-10T11:00:30;96238.03;;;31.25;38.02
32761;BME280;19126;47.472;7.850;2023-06-10T11:02:59;96230.47;;;30.96;37.64
32761;BME280;19126;47.472;7.850;2023-06-10T11:05:33;96233.25;;;31.31;39.16
32761;BME280;19126;47.472;7.850;2023-06-10T11:08:02;96231.97;;;31.64;41.61
32761;BME280;19126;47.472;7.850;2023-06-10T11:10:30;96242.19;;;31.49;39.85
32761;BME280;19126;47.472;7.850;2023-06-10T11:12:58;96239.63;;;31.35;38.60
32761;BME280;19126;47.472;7.850;2023-06-10T11:15:27;96236.56;;;31.02;37.09
32761;BME280;19126;47.472;7.850;2023-06-10T11:18:13;96223.50;;;31.48;39.65
32761;BME280;19126;47.472;7.850;2023-06-10T11:20:45;96229.69;;;32.01;40.16
32761;BME280;19126;47.472;7.850;2023-06-10T11:23:39;96231.06;;;32.34;39.36
32761;BME280;19126;47.472;7.850;2023-06-10T11:26:30;96224.09;;;32.54;37.39
32761;BME280;19126;47.472;7.850;2023-06-10T11:29:07;96224.00;;;32.71;36.53
32761;BME280;19126;47.472;7.850;2023-06-10T11:31:50;96219.28;;;32.90;36.42
32761;BME280;19126;47.472;7.850;2023-06-10T11:34:23;96230.66;;;32.92;34.81
32761;BME280;19126;47.472;7.850;2023-06-10T11:36:52;96223.91;;;32.59;32.97
32761;BME280;19126;47.472;7.850;2023-06-10T11:39:20;96230.03;;;31.64;34.46
32761;BME280;19126;47.472;7.850;2023-06-10T11:41:49;96218.19;;;31.07;34.85
32761;BME280;19126;47.472;7.850;2023-06-10T11:44:17;96219.19;;;31.20;35.79
32761;BME280;19126;47.472;7.850;2023-06-10T11:46:44;96222.16;;;30.83;34.36
32761;BME280;19126;47.472;7.850;2023-06-10T11:49:12;96215.03;;;31.14;35.59
32761;BME280;19126;47.472;7.850;2023-06-10T11:51:41;96209.91;;;31.12;34.36
32761;BME280;19126;47.472;7.850;2023-06-10T11:54:14;96211.19;;;31.15;34.79
32761;BME280;19126;47.472;7.850;2023-06-10T11:56:43;96202.28;;;31.32;35.01
32761;BME280;19126;47.472;7.850;2023-06-10T11:59:10;96203.06;;;31.41;36.22
32761;BME280;19126;47.472;7.850;2023-06-10T12:01:40;96203.69;;;31.65;36.31
32761;BME280;19126;47.472;7.850;2023-06-10T12:04:09;96211.00;;;31.99;36.84
32761;BME280;19126;47.472;7.850;2023-06-10T12:06:43;96203.75;;;32.21;36.15
32761;BME280;19126;47.472;7.850;2023-06-10T12:09:14;96203.34;;;32.40;35.22
32761;BME280;19126;47.472;7.850;2023-06-10T12:11:42;96202.25;;;32.41;35.12
32761;BME280;19126;47.472;7.850;2023-06-10T12:14:10;96207.97;;;32.49;34.88
32761;BME280;19126;47.472;7.850;2023-06-10T12:16:37;96200.94;;;32.48;34.77
32761;BME280;19126;47.472;7.850;2023-06-10T12:19:04;96203.88;;;32.25;34.21
32761;BME280;19126;47.472;7.850;2023-06-10T12:21:33;96196.97;;;31.80;34.34
32761;BME280;19126;47.472;7.850;2023-06-10T12:24:07;96197.63;;;31.68;32.76
32761;BME280;19126;47.472;7.850;2023-06-10T12:26:38;96183.41;;;31.80;34.21
32761;BME280;19126;47.472;7.850;2023-06-10T12:29:19;96195.31;;;32.14;34.28
32761;BME280;19126;47.472;7.850;2023-06-10T12:31:59;96195.31;;;32.05;32.23
32761;BME280;19126;47.472;7.850;2023-06-10T12:34:31;96187.56;;;32.25;31.94
32761;BME280;19126;47.472;7.850;2023-06-10T12:36:58;96179.75;;;32.62;32.71
32761;BME280;19126;47.472;7.850;2023-06-10T12:39:27;96183.16;;;32.80;31.85
32761;BME280;19126;47.472;7.850;2023-06-10T12:41:55;96175.75;;;33.11;32.54
32761;BME280;19126;47.472;7.850;2023-06-10T12:44:35;96188.53;;;32.68;31.06
32761;BME280;19126;47.472;7.850;2023-06-10T12:47:07;96185.38;;;32.18;31.88
32761;BME280;19126;47.472;7.850;2023-06-10T12:49:35;96173.16;;;31.94;33.63
32761;BME280;19126;47.472;7.850;2023-06-10T12:52:03;96182.53;;;32.06;33.88
32761;BME280;19126;47.472;7.850;2023-06-10T12:54:32;96180.56;;;32.33;32.40
32761;BME280;19126;47.472;7.850;2023-06-10T12:57:00;96177.50;;;32.34;32.85
32761;BME280;19126;47.472;7.850;2023-06-10T12:59:27;96173.84;;;32.60;34.55
32761;BME280;19126;47.472;7.850;2023-06-10T13:01:55;96176.03;;;32.97;33.63
32761;BME280;19126;47.472;7.850;2023-06-10T13:04:22;96178.03;;;32.79;33.48